createdAt,value
2022-11-08T00:02:23.247Z,100846.06
2022-11-08T00:04:50.132Z,100848.23
2022-11-08T00:07:35.826Z,100848.31
2022-11-08T00:10:21.443Z,100848.50
2022-11-08T00:13:06.983Z,100848.39
2022-11-08T00:15:38.720Z,100845.11
2022-11-08T00:18:06.528Z,100847.11
2022-11-08T00:20:33.411Z,100854.73
2022-11-08T00:23:00.099Z,100848.80
2022-11-08T00:25:26.773Z,100844.41
2022-11-08T00:27:53.649Z,100841.81
2022-11-08T00:30:20.477Z,100851.62
2022-11-08T00:32:47.113Z,100846.66
2022-11-08T00:35:13.810Z,100839.19
2022-11-08T00:37:40.914Z,100832.96
2022-11-08T00:40:08.622Z,100830.24
2022-11-08T00:42:35.754Z,100829.13
2022-11-08T00:45:02.995Z,100822.94
2022-11-08T00:47:38.027Z,100822.95
2022-11-08T00:50:05.419Z,100835.84
2022-11-08T00:52:32.357Z,100839.15
2022-11-08T00:54:59.003Z,100826.26
2022-11-08T00:57:41.176Z,100810.55
2022-11-08T01:00:13.733Z,100801.80
2022-11-08T01:02:41.233Z,100797.54
2022-11-08T01:05:08.583Z,100797.23
2022-11-08T01:07:35.264Z,100789.23
2022-11-08T01:10:01.985Z,100791.67
2022-11-08T01:12:28.688Z,100795.32
2022-11-08T01:14:55.366Z,100801.31
2022-11-08T01:17:22.071Z,100806.67
2022-11-08T01:19:48.715Z,100812.01
2022-11-08T01:22:15.399Z,100808.33
2022-11-08T01:24:42.080Z,100813.47
2022-11-08T01:27:09.657Z,100814.83
2022-11-08T01:29:36.496Z,100821.31
2022-11-08T01:32:03.159Z,100814.14
2022-11-08T01:34:29.919Z,100804.64
2022-11-08T01:36:56.678Z,100800.50
2022-11-08T01:39:23.359Z,100797.50
2022-11-08T01:41:50.099Z,100791.17
2022-11-08T01:44:17.354Z,100786.10
2022-11-08T01:46:47.702Z,100789.77
2022-11-08T01:49:19.114Z,100780.94
2022-11-08T01:51:50.603Z,100777.08
2022-11-08T01:54:21.056Z,100781.88
2022-11-08T01:56:47.758Z,100785.48
2022-11-08T01:59:14.399Z,100789.33
2022-11-08T02:01:41.977Z,100797.58
2022-11-08T02:04:08.886Z,100795.97
2022-11-08T02:06:35.551Z,100797.56
2022-11-08T02:09:03.667Z,100802.59
2022-11-08T02:11:30.335Z,100797.43
2022-11-08T02:13:57.004Z,100794.73
2022-11-08T02:16:23.700Z,100792.96
2022-11-08T02:18:50.426Z,100797.50
2022-11-08T02:21:24.833Z,100791.92
2022-11-08T02:23:53.499Z,100787.30
2022-11-08T02:26:22.967Z,100801.20
2022-11-08T02:28:49.651Z,100803.24
2022-11-08T02:31:18.370Z,100804.45
2022-11-08T02:33:45.506Z,100809.05
2022-11-08T02:36:14.583Z,100814.08
2022-11-08T02:38:46.840Z,100805.39
2022-11-08T02:41:13.703Z,100799.64
2022-11-08T02:43:40.347Z,100795.17
2022-11-08T02:46:07.010Z,100796.06
2022-11-08T02:48:33.691Z,100800.48
2022-11-08T02:51:00.320Z,100794.17
2022-11-08T02:53:27.088Z,100790.39
2022-11-08T02:55:53.898Z,100788.08
2022-11-08T02:58:21.160Z,100788.27
2022-11-08T03:00:48.159Z,100791.28
2022-11-08T03:03:14.863Z,100785.81
2022-11-08T03:05:43.365Z,100780.85
2022-11-08T03:08:10.084Z,100782.08
2022-11-08T03:10:36.707Z,100779.92
2022-11-08T03:13:04.472Z,100777.73
2022-11-08T03:15:31.257Z,100781.09
2022-11-08T03:17:58.177Z,100781.21
2022-11-08T03:20:29.632Z,100786.40
2022-11-08T03:23:03.618Z,100791.61
2022-11-08T03:25:30.336Z,100791.90
2022-11-08T03:28:07.881Z,100801.40
2022-11-08T03:30:35.125Z,100793.61
2022-11-08T03:33:01.942Z,100789.25
2022-11-08T03:35:28.758Z,100784.48
2022-11-08T03:37:56.625Z,100790.69
2022-11-08T03:40:23.572Z,100792.87
2022-11-08T03:42:50.246Z,100792.43
2022-11-08T03:45:17.231Z,100798.03
2022-11-08T03:47:45.179Z,100799.03
2022-11-08T03:50:12.936Z,100799.27
2022-11-08T03:52:44.753Z,100792.85
2022-11-08T03:55:11.908Z,100790.35
2022-11-08T03:57:39.491Z,100791.79
2022-11-08T04:00:07.637Z,100790.36
2022-11-08T07:33:38.169Z,100807.55
2022-11-08T07:36:05.228Z,100809.94
2022-11-08T07:38:31.968Z,100809.84
2022-11-08T07:40:59.305Z,100811.89
2022-11-08T07:43:27.347Z,100814.86
2022-11-08T07:45:56.922Z,100817.89
2022-11-08T07:48:23.761Z,100818.89
2022-11-08T07:50:50.528Z,100819.17
2022-11-08T07:53:17.606Z,100816.98
2022-11-08T07:55:45.102Z,100818.02
2022-11-08T07:58:11.797Z,100818.23
2022-11-08T08:00:39.327Z,100820.57
2022-11-08T08:03:07.148Z,100818.52
2022-11-08T08:05:38.685Z,100818.44
2022-11-08T08:08:05.691Z,100818.73
2022-11-08T08:10:34.114Z,100814.63
2022-11-08T08:13:01.085Z,100813.88
2022-11-08T08:15:27.831Z,100811.82
2022-11-08T08:17:54.655Z,100807.98
2022-11-08T08:20:21.356Z,100805.88
2022-11-08T08:22:49.033Z,100805.05
2022-11-08T08:25:16.324Z,100807.07
2022-11-08T08:27:49.994Z,100805.92
2022-11-08T08:30:17.411Z,100799.34
2022-11-08T08:32:46.084Z,100802.70
2022-11-08T08:35:14.633Z,100801.64
2022-11-08T08:37:41.295Z,100808.92
2022-11-08T08:40:08.627Z,100812.04
2022-11-08T08:42:35.387Z,100813.84
2022-11-08T08:45:02.254Z,100813.05
2022-11-08T08:47:29.355Z,100809.73
2022-11-08T08:49:55.990Z,100808.21
2022-11-08T08:52:22.901Z,100808.30
2022-11-08T08:54:49.707Z,100807.73
2022-11-08T08:57:16.346Z,100804.27
2022-11-08T09:02:29.723Z,100803.80
2022-11-08T09:04:56.799Z,100801.52
2022-11-08T09:07:23.521Z,100804.60
2022-11-08T09:09:50.243Z,100800.13
2022-11-08T09:12:16.906Z,100807.54
2022-11-08T09:14:43.555Z,100806.23
2022-11-08T09:17:10.262Z,100799.45
2022-11-08T09:19:36.989Z,100804.48
2022-11-08T09:22:03.760Z,100799.30
2022-11-08T09:24:30.560Z,100799.66
2022-11-08T09:26:57.278Z,100798.59
2022-11-08T09:29:23.961Z,100800.15
2022-11-08T09:31:50.844Z,100800.50
2022-11-08T09:34:20.572Z,100798.06
2022-11-08T09:36:48.679Z,100800.95
2022-11-08T09:39:16.481Z,100801.47
2022-11-08T09:41:58.428Z,100796.63
2022-11-08T09:44:53.419Z,100795.39
2022-11-08T09:47:24.312Z,100797.16
2022-11-08T09:50:18.693Z,100798.42
2022-11-08T09:52:48.586Z,100796.48
2022-11-08T09:55:32.075Z,100798.63
2022-11-08T09:58:20.698Z,100796.10
2022-11-08T10:00:50.907Z,100793.30
2022-11-08T10:03:18.362Z,100789.23
2022-11-08T10:05:54.139Z,100787.05
2022-11-08T10:08:33.645Z,100786.45
2022-11-08T10:11:07.636Z,100786.47
2022-11-08T10:13:57.729Z,100785.95
2022-11-08T10:16:36.119Z,100783.52
2022-11-08T10:19:29.274Z,100784.55
2022-11-08T10:22:09.185Z,100779.88
2022-11-08T10:24:39.646Z,100781.45
2022-11-08T10:27:25.148Z,100779.78
2022-11-08T10:29:54.355Z,100778.59
2022-11-08T10:32:22.365Z,100778.93
2022-11-08T10:34:56.290Z,100781.40
2022-11-08T10:37:23.028Z,100776.23
2022-11-08T10:40:02.248Z,100771.81
2022-11-08T10:42:48.298Z,100771.06
2022-11-08T10:45:16.159Z,100768.64
2022-11-08T10:47:44.602Z,100772.14
2022-11-08T10:50:19.434Z,100772.80
2022-11-08T10:53:01.275Z,100778.31
2022-11-08T10:55:36.900Z,100777.75
2022-11-08T10:58:03.823Z,100781.60
2022-11-08T11:00:31.952Z,100780.95
2022-11-08T11:03:28.980Z,100779.90
2022-11-08T11:06:27.638Z,100787.11
2022-11-08T11:08:56.664Z,100788.39
2022-11-08T11:11:32.615Z,100785.83
2022-11-08T11:14:14.499Z,100785.20
2022-11-08T11:16:56.686Z,100781.85
2022-11-08T11:19:25.729Z,100781.61
2022-11-08T11:21:57.068Z,100782.38
2022-11-08T11:24:24.495Z,100778.92
2022-11-08T11:26:57.873Z,100776.92
2022-11-08T11:29:32.547Z,100780.08
2022-11-08T11:32:00.338Z,100788.05
2022-11-08T11:34:35.389Z,100791.08
2022-11-08T11:37:07.124Z,100795.53
2022-11-08T11:39:44.454Z,100796.69
2022-11-08T11:42:46.510Z,100796.48
2022-11-08T11:45:31.329Z,100797.81
2022-11-08T11:48:01.355Z,100796.09
2022-11-08T11:50:31.063Z,100799.33
2022-11-08T11:52:58.698Z,100799.92
2022-11-08T11:55:50.910Z,100799.70
2022-11-08T11:58:31.284Z,100796.81
2022-11-08T12:01:02.293Z,100795.65
2022-11-08T12:03:38.872Z,100796.34
2022-11-08T12:06:29.242Z,100794.16
2022-11-08T12:09:14.221Z,100793.77
2022-11-08T12:12:17.710Z,100795.23
2022-11-08T12:14:55.700Z,100797.19
2022-11-08T12:18:00.254Z,100798.52
2022-11-08T12:20:36.163Z,100799.36
2022-11-08T12:23:21.868Z,100803.40
2022-11-08T12:25:54.282Z,100803.39
2022-11-08T12:28:42.369Z,100804.15
2022-11-08T12:31:16.559Z,100806.24
2022-11-08T12:33:55.233Z,100806.65
2022-11-08T12:36:37.570Z,100802.77
2022-11-08T12:39:10.990Z,100801.83
2022-11-08T12:41:41.151Z,100806.80
2022-11-08T12:44:59.818Z,100805.10
2022-11-08T12:47:39.205Z,100804.65
2022-11-08T12:50:24.454Z,100808.96
2022-11-08T12:53:09.606Z,100811.16
2022-11-08T12:55:37.124Z,100810.37
2022-11-08T12:58:34.834Z,100802.92
2022-11-08T13:01:06.694Z,100806.13
2022-11-08T13:03:52.175Z,100809.01
2022-11-08T13:06:40.003Z,100810.90
2022-11-08T13:09:42.193Z,100809.11
2022-11-08T13:12:47.448Z,100808.27
2022-11-08T13:15:22.872Z,100809.34
2022-11-08T13:18:09.172Z,100807.27
2022-11-08T13:20:39.020Z,100807.38
2022-11-08T13:23:13.092Z,100809.92
2022-11-08T13:25:40.995Z,100815.27
2022-11-08T13:28:42.735Z,100821.94
2022-11-08T13:31:15.376Z,100820.14
2022-11-08T13:33:52.459Z,100824.55
2022-11-08T13:36:44.315Z,100827.55
2022-11-08T13:39:37.636Z,100828.86
2022-11-08T13:42:25.345Z,100830.42
2022-11-08T13:44:56.680Z,100831.16
2022-11-08T13:47:32.667Z,100830.39
2022-11-08T13:50:27.491Z,100832.77
2022-11-08T13:53:20.595Z,100832.98
2022-11-08T13:55:53.405Z,100833.06
2022-11-08T13:58:33.983Z,100831.84
2022-11-08T14:01:02.203Z,100830.81
2022-11-08T14:03:35.332Z,100832.20
2022-11-08T14:06:05.189Z,100828.13
2022-11-08T14:08:45.221Z,100832.47
2022-11-08T14:11:24.249Z,100830.67
2022-11-08T14:14:12.835Z,100837.12
2022-11-08T14:16:47.582Z,100833.67
2022-11-08T14:19:18.732Z,100835.14
2022-11-08T14:21:57.280Z,100833.64
2022-11-08T14:24:25.884Z,100829.73
2022-11-08T14:26:52.806Z,100831.02
2022-11-08T14:29:21.861Z,100830.76
2022-11-08T14:31:49.008Z,100829.06
2022-11-08T14:34:30.944Z,100830.59
2022-11-08T14:36:58.131Z,100832.61
2022-11-08T14:39:27.939Z,100836.06
2022-11-08T14:41:56.427Z,100829.19
2022-11-08T14:44:23.322Z,100834.09
2022-11-08T14:46:50.348Z,100834.46
2022-11-08T14:49:22.291Z,100831.89
2022-11-08T14:52:07.867Z,100830.48
2022-11-08T14:54:40.458Z,100830.73
2022-11-08T14:57:29.742Z,100833.52
2022-11-08T14:59:57.226Z,100828.42
2022-11-08T15:02:24.909Z,100833.23
2022-11-08T15:04:51.792Z,100833.69
2022-11-08T15:07:19.319Z,100833.73
2022-11-08T15:09:46.750Z,100838.88
2022-11-08T15:12:21.408Z,100840.67
2022-11-08T15:14:57.613Z,100841.45
2022-11-08T15:17:35.903Z,100839.08
2022-11-08T15:20:15.969Z,100841.05
2022-11-08T15:22:45.974Z,100840.22
2022-11-08T15:25:25.646Z,100839.61
2022-11-08T15:27:54.715Z,100841.48
2022-11-08T15:30:43.071Z,100843.74
2022-11-08T15:33:46.311Z,100846.67
2022-11-08T15:36:14.269Z,100843.65
2022-11-08T15:38:41.897Z,100843.85
2022-11-08T15:41:37.199Z,100851.29
2022-11-08T15:44:24.082Z,100851.75
2022-11-08T15:46:51.235Z,100849.55
2022-11-08T15:49:28.731Z,100848.27
2022-11-08T15:51:56.555Z,100854.64
2022-11-08T15:54:23.773Z,100855.55
2022-11-08T15:56:51.343Z,100856.02
2022-11-08T15:59:21.702Z,100861.42
2022-11-08T16:01:52.456Z,100854.45
2022-11-08T16:04:19.379Z,100859.52
2022-11-08T16:06:46.137Z,100863.00
2022-11-08T16:09:13.153Z,100868.91
2022-11-08T16:11:40.240Z,100868.59
2022-11-08T16:14:06.986Z,100866.98
2022-11-08T16:16:35.249Z,100870.27
2022-11-08T16:19:02.177Z,100872.29
2022-11-08T16:21:29.319Z,100869.95
2022-11-08T16:23:56.363Z,100870.62
2022-11-08T16:26:23.351Z,100871.17
2022-11-08T16:28:50.334Z,100871.83
2022-11-08T16:31:18.205Z,100873.16
2022-11-08T16:33:45.659Z,100875.26
2022-11-08T16:36:20.843Z,100877.20
2022-11-08T16:38:58.039Z,100877.34
2022-11-08T16:41:25.686Z,100879.08
2022-11-08T16:43:52.621Z,100882.36
2022-11-08T16:46:20.487Z,100883.44
2022-11-08T16:48:57.155Z,100888.59
2022-11-08T16:51:25.482Z,100886.48
2022-11-08T16:53:52.368Z,100886.48
2022-11-08T16:56:19.412Z,100886.52
2022-11-08T16:58:46.183Z,100884.54
2022-11-08T17:01:17.468Z,100884.41
2022-11-08T17:03:44.286Z,100881.63
2022-11-08T17:06:15.787Z,100885.27
2022-11-08T17:08:42.447Z,100887.56
2022-11-08T17:11:10.530Z,100886.30
2022-11-08T17:13:40.438Z,100886.19
2022-11-08T17:16:11.079Z,100886.30
2022-11-08T17:18:37.876Z,100887.79
2022-11-08T17:21:29.955Z,100888.84
2022-11-08T17:23:53.159Z,100892.59
2022-11-08T17:26:19.972Z,100890.61
2022-11-08T17:28:47.033Z,100893.44
2022-11-08T17:31:16.355Z,100894.10
2022-11-08T17:33:43.348Z,100892.17
2022-11-08T17:36:11.357Z,100892.42
2022-11-08T17:38:38.524Z,100894.02
2022-11-08T17:41:06.696Z,100898.84
2022-11-08T17:43:33.642Z,100900.22
2022-11-08T17:46:01.444Z,100898.06
2022-11-08T21:19:27.298Z,101007.75
2022-11-08T21:22:14.496Z,101008.30
2022-11-08T21:24:42.323Z,101010.59
2022-11-08T21:27:09.622Z,101009.51
2022-11-08T21:29:36.772Z,101011.04
2022-11-08T21:32:05.513Z,101013.02
2022-11-08T21:34:32.919Z,101014.48
2022-11-08T21:37:00.189Z,101015.89
2022-11-08T21:39:27.327Z,101014.76
2022-11-08T21:41:54.065Z,101017.52
2022-11-08T21:44:21.478Z,101019.04
2022-11-08T21:46:48.364Z,101017.58
2022-11-08T21:49:15.385Z,101016.67
2022-11-08T21:51:42.225Z,101017.20
2022-11-08T21:54:08.993Z,101020.96
2022-11-08T21:56:35.853Z,101021.15
2022-11-08T21:59:03.145Z,101019.18
2022-11-08T22:01:30.996Z,101015.04
2022-11-08T22:03:58.997Z,101014.85
2022-11-08T22:06:26.097Z,101011.68
2022-11-08T22:08:52.833Z,101011.23
2022-11-08T22:11:19.499Z,101012.62
2022-11-08T22:13:46.200Z,101012.96
2022-11-08T22:16:12.935Z,101013.27
2022-11-08T22:21:38.665Z,101014.18
2022-11-08T22:24:10.771Z,101016.89
2022-11-08T22:26:37.988Z,101016.09
2022-11-08T22:29:04.817Z,101016.45
2022-11-08T22:31:31.577Z,101019.67
2022-11-08T22:33:58.210Z,101021.88
2022-11-08T22:36:25.189Z,101025.73
2022-11-08T22:38:51.881Z,101025.09
2022-11-08T22:41:19.295Z,101025.17
2022-11-08T22:43:46.200Z,101026.32
2022-11-08T22:46:13.206Z,101028.33
2022-11-08T22:48:39.959Z,101025.56
2022-11-08T22:51:07.015Z,101026.38
2022-11-08T22:53:33.832Z,101026.94
2022-11-08T22:56:01.097Z,101025.46
2022-11-08T22:58:28.587Z,101026.47
2022-11-08T23:00:55.339Z,101031.14
2022-11-08T23:03:22.307Z,101032.24
2022-11-08T23:05:52.980Z,101035.52
2022-11-08T23:08:19.924Z,101035.77
2022-11-08T23:11:05.455Z,101036.63
2022-11-08T23:13:50.840Z,101034.98
2022-11-08T23:16:34.996Z,101037.40
2022-11-08T23:19:21.046Z,101035.98
2022-11-08T23:22:06.524Z,101035.91
2022-11-08T23:24:33.288Z,101034.54
2022-11-08T23:27:19.177Z,101036.45
2022-11-08T23:30:04.581Z,101041.23
2022-11-08T23:32:31.482Z,101036.96
2022-11-08T23:34:58.215Z,101037.58
2022-11-08T23:37:24.961Z,101038.55
2022-11-08T23:40:10.427Z,101035.58
2022-11-08T23:42:55.684Z,101039.42
2022-11-08T23:45:22.355Z,101035.27
2022-11-08T23:47:49.069Z,101038.10
2022-11-08T23:50:15.800Z,101037.55
2022-11-08T23:52:42.508Z,101033.79
2022-11-08T23:55:09.429Z,101034.20
2022-11-08T23:57:36.248Z,101035.50
